sensor_id;sensor_type;location;lat;lon;timestamp;temperature;humidity
41668;DHT22;27356;50.920;5.350;2022-09-28T00:00:31;9.70;99.90
41668;DHT22;27356;50.920;5.350;2022-09-28T00:02:57;9.70;99.90
41668;DHT22;27356;50.920;5.350;2022-09-28T00:05:23;9.70;99.90
41668;DHT22;27356;50.920;5.350;2022-09-28T00:07:54;9.70;99.90
41668;DHT22;27356;50.920;5.350;2022-09-28T00:10:21;9.70;99.90
41668;DHT22;27356;50.920;5.350;2022-09-28T00:12:50;9.70;99.90
41668;DHT22;27356;50.920;5.350;2022-09-28T00:15:16;9.70;99.90
41668;DHT22;27356;50.920;5.350;2022-09-28T00:17:42;9.70;99.90
41668;DHT22;27356;50.920;5.350;2022-09-28T00:20:11;9.70;99.90
41668;DHT22;27356;50.920;5.350;2022-09-28T00:22:36;9.70;99.90
41668;DHT22;27356;50.920;5.350;2022-09-28T00:25:02;9.60;99.90
41668;DHT22;27356;50.920;5.350;2022-09-28T00:27:28;9.60;99.90
41668;DHT22;27356;50.920;5.350;2022-09-28T00:29:53;9.60;99.90
41668;DHT22;27356;50.920;5.350;2022-09-28T00:32:20;9.40;99.90
41668;DHT22;27356;50.920;5.350;2022-09-28T00:34:49;9.50;99.90
41668;DHT22;27356;50.920;5.350;2022-09-28T00:37:14;9.50;99.90
41668;DHT22;27356;50.920;5.350;2022-09-28T00:39:40;9.50;99.90
41668;DHT22;27356;50.920;5.350;2022-09-28T00:42:13;9.40;99.90
41668;DHT22;27356;50.920;5.350;2022-09-28T00:47:12;9.40;99.90
41668;DHT22;27356;50.920;5.350;2022-09-28T00:52:04;9.50;99.90
41668;DHT22;27356;50.920;5.350;2022-09-28T00:54:32;9.50;99.90
41668;DHT22;27356;50.920;5.350;2022-09-28T00:56:59;9.50;99.90
41668;DHT22;27356;50.920;5.350;2022-09-28T00:59:25;9.50;99.90
41668;DHT22;27356;50.920;5.350;2022-09-28T01:01:51;9.50;99.90
41668;DHT22;27356;50.920;5.350;2022-09-28T01:04:17;9.50;99.90
41668;DHT22;27356;50.920;5.350;2022-09-28T01:06:42;9.50;99.90
41668;DHT22;27356;50.920;5.350;2022-09-28T01:09:09;9.50;99.90
41668;DHT22;27356;50.920;5.350;2022-09-28T01:11:37;9.50;99.90
41668;DHT22;27356;50.920;5.350;2022-09-28T01:14:03;9.60;99.90
41668;DHT22;27356;50.920;5.350;2022-09-28T01:21:51;9.60;99.90
41668;DHT22;27356;50.920;5.350;2022-09-28T01:26:47;9.50;99.90
41668;DHT22;27356;50.920;5.350;2022-09-28T01:31:47;9.30;99.90
41668;DHT22;27356;50.920;5.350;2022-09-28T01:34:15;9.20;99.90
41668;DHT22;27356;50.920;5.350;2022-09-28T01:36:47;9.10;99.90
41668;DHT22;27356;50.920;5.350;2022-09-28T01:39:32;9.10;99.90
41668;DHT22;27356;50.920;5.350;2022-09-28T01:42:00;9.00;99.90
41668;DHT22;27356;50.920;5.350;2022-09-28T01:44:27;9.00;99.90
41668;DHT22;27356;50.920;5.350;2022-09-28T01:46:54;8.90;99.90
41668;DHT22;27356;50.920;5.350;2022-09-28T01:49:30;8.90;99.90
41668;DHT22;27356;50.920;5.350;2022-09-28T01:51:59;8.80;99.90
41668;DHT22;27356;50.920;5.350;2022-09-28T01:57:36;8.70;99.90
41668;DHT22;27356;50.920;5.350;2022-09-28T01:59:43;8.70;99.90
41668;DHT22;27356;50.920;5.350;2022-09-28T02:02:16;8.70;99.90
41668;DHT22;27356;50.920;5.350;2022-09-28T02:04:48;8.60;99.90
41668;DHT22;27356;50.920;5.350;2022-09-28T02:07:37;8.60;99.90
41668;DHT22;27356;50.920;5.350;2022-09-28T02:10:08;8.60;99.90
41668;DHT22;27356;50.920;5.350;2022-09-28T02:12:44;8.60;99.90
41668;DHT22;27356;50.920;5.350;2022-09-28T02:15:14;8.60;99.90
41668;DHT22;27356;50.920;5.350;2022-09-28T02:17:42;8.50;99.90
41668;DHT22;27356;50.920;5.350;2022-09-28T02:20:07;8.50;99.90
41668;DHT22;27356;50.920;5.350;2022-09-28T02:22:36;8.50;99.90
41668;DHT22;27356;50.920;5.350;2022-09-28T02:29:55;8.70;99.90
41668;DHT22;27356;50.920;5.350;2022-09-28T02:32:21;8.50;99.90
41668;DHT22;27356;50.920;5.350;2022-09-28T02:34:47;8.40;99.90
41668;DHT22;27356;50.920;5.350;2022-09-28T02:37:13;8.50;99.90
41668;DHT22;27356;50.920;5.350;2022-09-28T02:39:39;8.40;99.90
41668;DHT22;27356;50.920;5.350;2022-09-28T02:44:42;8.50;99.90
41668;DHT22;27356;50.920;5.350;2022-09-28T02:55:32;8.60;99.90
41668;DHT22;27356;50.920;5.350;2022-09-28T03:00:40;8.80;99.90
41668;DHT22;27356;50.920;5.350;2022-09-28T03:05:45;8.70;99.90
41668;DHT22;27356;50.920;5.350;2022-09-28T03:08:28;8.80;99.90
41668;DHT22;27356;50.920;5.350;2022-09-28T03:11:03;8.80;99.90
41668;DHT22;27356;50.920;5.350;2022-09-28T03:13:30;8.90;99.90
41668;DHT22;27356;50.920;5.350;2022-09-28T03:16:12;8.80;99.90
41668;DHT22;27356;50.920;5.350;2022-09-28T03:18:37;8.90;99.90
41668;DHT22;27356;50.920;5.350;2022-09-28T03:21:03;8.90;99.90
41668;DHT22;27356;50.920;5.350;2022-09-28T03:23:29;8.90;99.90
41668;DHT22;27356;50.920;5.350;2022-09-28T03:25:54;8.90;99.90
41668;DHT22;27356;50.920;5.350;2022-09-28T03:28:20;8.70;99.90
41668;DHT22;27356;50.920;5.350;2022-09-28T03:30:46;8.80;99.90
41668;DHT22;27356;50.920;5.350;2022-09-28T03:33:11;8.70;99.90
41668;DHT22;27356;50.920;5.350;2022-09-28T03:35:37;8.70;99.90
41668;DHT22;27356;50.920;5.350;2022-09-28T03:38:03;8.60;99.90
41668;DHT22;27356;50.920;5.350;2022-09-28T03:40:28;8.60;99.90
41668;DHT22;27356;50.920;5.350;2022-09-28T03:42:54;8.70;99.90
41668;DHT22;27356;50.920;5.350;2022-09-28T03:45:19;8.70;99.90
41668;DHT22;27356;50.920;5.350;2022-09-28T03:47:45;8.70;99.90
41668;DHT22;27356;50.920;5.350;2022-09-28T03:50:11;8.70;99.90
41668;DHT22;27356;50.920;5.350;2022-09-28T03:52:36;8.50;99.90
41668;DHT22;27356;50.920;5.350;2022-09-28T03:55:02;8.60;99.90
41668;DHT22;27356;50.920;5.350;2022-09-28T03:57:27;8.50;99.90
41668;DHT22;27356;50.920;5.350;2022-09-28T03:59:53;8.50;99.90
41668;DHT22;27356;50.920;5.350;2022-09-28T04:02:18;8.70;99.90
41668;DHT22;27356;50.920;5.350;2022-09-28T04:04:44;8.70;99.90
41668;DHT22;27356;50.920;5.350;2022-09-28T04:07:09;8.70;99.90
41668;DHT22;27356;50.920;5.350;2022-09-28T04:09:35;8.70;99.90
41668;DHT22;27356;50.920;5.350;2022-09-28T04:12:00;8.70;99.90
41668;DHT22;27356;50.920;5.350;2022-09-28T04:14:26;8.70;99.90
41668;DHT22;27356;50.920;5.350;2022-09-28T04:16:51;8.70;99.90
41668;DHT22;27356;50.920;5.350;2022-09-28T04:19:19;8.70;99.90
41668;DHT22;27356;50.920;5.350;2022-09-28T04:21:45;8.70;99.90
41668;DHT22;27356;50.920;5.350;2022-09-28T04:24:11;8.70;99.90
41668;DHT22;27356;50.920;5.350;2022-09-28T04:26:36;8.70;99.90
41668;DHT22;27356;50.920;5.350;2022-09-28T04:29:02;8.70;99.90
41668;DHT22;27356;50.920;5.350;2022-09-28T04:31:41;8.70;99.90
41668;DHT22;27356;50.920;5.350;2022-09-28T04:34:08;8.70;99.90
41668;DHT22;27356;50.920;5.350;2022-09-28T04:36:34;8.70;99.90
41668;DHT22;27356;50.920;5.350;2022-09-28T04:38:59;8.80;99.90
41668;DHT22;27356;50.920;5.350;2022-09-28T04:41:25;8.80;99.90
41668;DHT22;27356;50.920;5.350;2022-09-28T04:43:51;8.70;99.90
41668;DHT22;27356;50.920;5.350;2022-09-28T04:46:17;8.50;99.90
41668;DHT22;27356;50.920;5.350;2022-09-28T04:48:43;8.50;99.90
41668;DHT22;27356;50.920;5.350;2022-09-28T04:51:08;8.30;99.90
41668;DHT22;27356;50.920;5.350;2022-09-28T04:53:34;8.40;99.90
41668;DHT22;27356;50.920;5.350;2022-09-28T04:56:00;8.30;99.90
41668;DHT22;27356;50.920;5.350;2022-09-28T04:58:26;8.20;99.90
41668;DHT22;27356;50.920;5.350;2022-09-28T05:00:52;8.20;99.90
41668;DHT22;27356;50.920;5.350;2022-09-28T05:03:21;8.20;99.90
41668;DHT22;27356;50.920;5.350;2022-09-28T05:05:46;8.20;99.90
41668;DHT22;27356;50.920;5.350;2022-09-28T05:08:13;8.10;99.90
41668;DHT22;27356;50.920;5.350;2022-09-28T05:10:38;8.10;99.90
41668;DHT22;27356;50.920;5.350;2022-09-28T05:13:07;8.00;99.90
41668;DHT22;27356;50.920;5.350;2022-09-28T05:15:33;8.00;99.90
41668;DHT22;27356;50.920;5.350;2022-09-28T05:17:59;7.80;99.90
41668;DHT22;27356;50.920;5.350;2022-09-28T05:20:25;7.90;99.90
41668;DHT22;27356;50.920;5.350;2022-09-28T05:22:50;8.00;99.90
41668;DHT22;27356;50.920;5.350;2022-09-28T05:25:16;8.00;99.90
41668;DHT22;27356;50.920;5.350;2022-09-28T05:27:42;8.00;99.90
41668;DHT22;27356;50.920;5.350;2022-09-28T05:30:07;8.10;99.90
41668;DHT22;27356;50.920;5.350;2022-09-28T05:32:41;8.10;99.90
41668;DHT22;27356;50.920;5.350;2022-09-28T05:35:08;8.20;99.90
41668;DHT22;27356;50.920;5.350;2022-09-28T05:37:38;8.20;99.90
41668;DHT22;27356;50.920;5.350;2022-09-28T05:40:05;8.20;99.90
41668;DHT22;27356;50.920;5.350;2022-09-28T05:42:31;8.20;99.90
41668;DHT22;27356;50.920;5.350;2022-09-28T05:44:57;8.30;99.90
41668;DHT22;27356;50.920;5.350;2022-09-28T05:47:23;8.20;99.90
41668;DHT22;27356;50.920;5.350;2022-09-28T05:49:50;8.10;99.90
41668;DHT22;27356;50.920;5.350;2022-09-28T05:52:15;8.10;99.90
41668;DHT22;27356;50.920;5.350;2022-09-28T05:54:41;8.00;99.90
41668;DHT22;27356;50.920;5.350;2022-09-28T05:57:06;8.10;99.90
41668;DHT22;27356;50.920;5.350;2022-09-28T05:59:32;8.10;99.90
41668;DHT22;27356;50.920;5.350;2022-09-28T06:01:59;8.10;99.90
41668;DHT22;27356;50.920;5.350;2022-09-28T06:04:25;8.20;99.90
41668;DHT22;27356;50.920;5.350;2022-09-28T06:06:50;8.10;99.90
41668;DHT22;27356;50.920;5.350;2022-09-28T06:09:16;8.30;99.90
41668;DHT22;27356;50.920;5.350;2022-09-28T06:11:41;8.40;99.90
41668;DHT22;27356;50.920;5.350;2022-09-28T06:14:07;8.60;99.90
41668;DHT22;27356;50.920;5.350;2022-09-28T06:16:32;8.90;99.90
41668;DHT22;27356;50.920;5.350;2022-09-28T06:18:59;9.10;99.90
41668;DHT22;27356;50.920;5.350;2022-09-28T06:21:25;9.90;99.90
41668;DHT22;27356;50.920;5.350;2022-09-28T06:23:50;10.30;99.90
41668;DHT22;27356;50.920;5.350;2022-09-28T06:26:16;10.50;99.90
41668;DHT22;27356;50.920;5.350;2022-09-28T06:28:42;11.10;99.90
41668;DHT22;27356;50.920;5.350;2022-09-28T06:31:07;11.60;99.90
41668;DHT22;27356;50.920;5.350;2022-09-28T06:33:33;12.00;99.90
41668;DHT22;27356;50.920;5.350;2022-09-28T06:36:00;12.50;99.90
41668;DHT22;27356;50.920;5.350;2022-09-28T06:38:25;12.80;99.90
41668;DHT22;27356;50.920;5.350;2022-09-28T06:40:51;13.30;99.90
41668;DHT22;27356;50.920;5.350;2022-09-28T06:43:16;13.80;99.90
41668;DHT22;27356;50.920;5.350;2022-09-28T06:45:43;14.40;99.90
41668;DHT22;27356;50.920;5.350;2022-09-28T06:48:14;14.90;99.90
41668;DHT22;27356;50.920;5.350;2022-09-28T06:50:40;15.30;99.90
41668;DHT22;27356;50.920;5.350;2022-09-28T06:53:07;15.70;99.90
41668;DHT22;27356;50.920;5.350;2022-09-28T06:55:43;15.80;99.90
41668;DHT22;27356;50.920;5.350;2022-09-28T06:58:11;16.20;99.90
41668;DHT22;27356;50.920;5.350;2022-09-28T07:00:37;16.40;99.90
41668;DHT22;27356;50.920;5.350;2022-09-28T07:03:07;16.80;99.90
41668;DHT22;27356;50.920;5.350;2022-09-28T07:05:34;16.70;99.90
41668;DHT22;27356;50.920;5.350;2022-09-28T07:08:01;16.70;99.90
41668;DHT22;27356;50.920;5.350;2022-09-28T07:10:28;17.00;99.90
41668;DHT22;27356;50.920;5.350;2022-09-28T07:12:54;17.20;99.90
41668;DHT22;27356;50.920;5.350;2022-09-28T07:15:20;17.40;99.90
41668;DHT22;27356;50.920;5.350;2022-09-28T07:17:46;17.70;99.90
41668;DHT22;27356;50.920;5.350;2022-09-28T07:20:11;17.70;99.90
41668;DHT22;27356;50.920;5.350;2022-09-28T07:22:37;18.10;99.80
41668;DHT22;27356;50.920;5.350;2022-09-28T07:25:04;18.40;98.60
41668;DHT22;27356;50.920;5.350;2022-09-28T07:27:30;18.40;99.20
41668;DHT22;27356;50.920;5.350;2022-09-28T07:29:55;18.60;98.50
41668;DHT22;27356;50.920;5.350;2022-09-28T07:32:23;19.10;97.80
41668;DHT22;27356;50.920;5.350;2022-09-28T07:34:48;19.20;97.00
41668;DHT22;27356;50.920;5.350;2022-09-28T07:37:14;18.90;96.90
41668;DHT22;27356;50.920;5.350;2022-09-28T07:39:40;18.60;96.90
41668;DHT22;27356;50.920;5.350;2022-09-28T07:42:24;18.90;97.10
41668;DHT22;27356;50.920;5.350;2022-09-28T07:44:53;19.30;96.50
41668;DHT22;27356;50.920;5.350;2022-09-28T07:47:19;19.50;96.00
41668;DHT22;27356;50.920;5.350;2022-09-28T07:49:54;19.70;96.10
41668;DHT22;27356;50.920;5.350;2022-09-28T07:52:21;19.80;95.50
41668;DHT22;27356;50.920;5.350;2022-09-28T07:54:49;20.20;94.90
41668;DHT22;27356;50.920;5.350;2022-09-28T07:57:17;20.40;95.00
41668;DHT22;27356;50.920;5.350;2022-09-28T07:59:43;19.90;94.70
41668;DHT22;27356;50.920;5.350;2022-09-28T08:02:10;20.60;95.40
41668;DHT22;27356;50.920;5.350;2022-09-28T08:04:35;21.00;93.60
41668;DHT22;27356;50.920;5.350;2022-09-28T08:07:01;21.00;93.90
41668;DHT22;27356;50.920;5.350;2022-09-28T08:09:27;20.60;94.40
41668;DHT22;27356;50.920;5.350;2022-09-28T08:11:53;20.90;93.20
41668;DHT22;27356;50.920;5.350;2022-09-28T08:14:19;21.50;93.00
41668;DHT22;27356;50.920;5.350;2022-09-28T08:16:44;21.80;92.50
41668;DHT22;27356;50.920;5.350;2022-09-28T08:19:10;22.10;92.40
41668;DHT22;27356;50.920;5.350;2022-09-28T08:21:35;22.00;92.50
41668;DHT22;27356;50.920;5.350;2022-09-28T08:24:11;22.10;91.60
41668;DHT22;27356;50.920;5.350;2022-09-28T08:26:36;22.10;92.40
41668;DHT22;27356;50.920;5.350;2022-09-28T08:29:02;22.20;92.30
41668;DHT22;27356;50.920;5.350;2022-09-28T08:31:27;22.50;90.60
41668;DHT22;27356;50.920;5.350;2022-09-28T08:33:53;21.80;91.00
41668;DHT22;27356;50.920;5.350;2022-09-28T08:36:20;22.00;92.10
41668;DHT22;27356;50.920;5.350;2022-09-28T08:38:45;21.90;91.60
41668;DHT22;27356;50.920;5.350;2022-09-28T08:41:15;22.40;91.30
41668;DHT22;27356;50.920;5.350;2022-09-28T08:46:14;22.70;91.60
41668;DHT22;27356;50.920;5.350;2022-09-28T08:48:46;22.70;90.90
41668;DHT22;27356;50.920;5.350;2022-09-28T08:51:22;22.20;91.70
41668;DHT22;27356;50.920;5.350;2022-09-28T08:53:54;21.70;92.60
41668;DHT22;27356;50.920;5.350;2022-09-28T08:58:57;21.20;93.10
41668;DHT22;27356;50.920;5.350;2022-09-28T09:01:25;21.50;92.90
41668;DHT22;27356;50.920;5.350;2022-09-28T09:03:52;22.10;93.10
41668;DHT22;27356;50.920;5.350;2022-09-28T09:11:52;22.50;90.20
41668;DHT22;27356;50.920;5.350;2022-09-28T09:17:13;21.90;90.90
41668;DHT22;27356;50.920;5.350;2022-09-28T09:22:24;21.60;90.80
41668;DHT22;27356;50.920;5.350;2022-09-28T09:34:59;18.80;95.30
41668;DHT22;27356;50.920;5.350;2022-09-28T09:40:16;18.30;94.90
41668;DHT22;27356;50.920;5.350;2022-09-28T09:42:55;18.00;95.40
41668;DHT22;27356;50.920;5.350;2022-09-28T09:48:29;17.70;95.50
41668;DHT22;27356;50.920;5.350;2022-09-28T09:53:31;17.10;96.50
41668;DHT22;27356;50.920;5.350;2022-09-28T09:56:03;16.70;97.90
41668;DHT22;27356;50.920;5.350;2022-09-28T09:58:35;16.80;98.60
41668;DHT22;27356;50.920;5.350;2022-09-28T10:01:06;16.90;98.90
41668;DHT22;27356;50.920;5.350;2022-09-28T10:03:32;16.90;97.80
41668;DHT22;27356;50.920;5.350;2022-09-28T10:06:06;16.90;98.00
41668;DHT22;27356;50.920;5.350;2022-09-28T10:08:49;17.00;96.80
41668;DHT22;27356;50.920;5.350;2022-09-28T10:11:21;17.10;97.00
41668;DHT22;27356;50.920;5.350;2022-09-28T10:13:50;17.00;96.60
41668;DHT22;27356;50.920;5.350;2022-09-28T10:16:16;17.30;97.30
41668;DHT22;27356;50.920;5.350;2022-09-28T10:18:42;17.20;96.80
41668;DHT22;27356;50.920;5.350;2022-09-28T10:21:10;17.00;97.20
41668;DHT22;27356;50.920;5.350;2022-09-28T10:23:36;17.10;97.40
41668;DHT22;27356;50.920;5.350;2022-09-28T10:26:06;17.20;96.90
41668;DHT22;27356;50.920;5.350;2022-09-28T10:28:39;17.00;96.60
41668;DHT22;27356;50.920;5.350;2022-09-28T10:33:51;17.40;98.30
41668;DHT22;27356;50.920;5.350;2022-09-28T10:36:17;17.40;96.50
41668;DHT22;27356;50.920;5.350;2022-09-28T10:38:42;17.30;96.00
41668;DHT22;27356;50.920;5.350;2022-09-28T10:41:11;17.40;96.90
41668;DHT22;27356;50.920;5.350;2022-09-28T10:44:00;17.50;96.00
41668;DHT22;27356;50.920;5.350;2022-09-28T10:46:34;17.70;96.20
41668;DHT22;27356;50.920;5.350;2022-09-28T10:49:03;17.90;96.00
41668;DHT22;27356;50.920;5.350;2022-09-28T10:51:40;18.10;96.30
41668;DHT22;27356;50.920;5.350;2022-09-28T10:54:09;18.40;96.50
41668;DHT22;27356;50.920;5.350;2022-09-28T10:56:37;18.90;95.50
41668;DHT22;27356;50.920;5.350;2022-09-28T10:59:23;19.00;95.40
41668;DHT22;27356;50.920;5.350;2022-09-28T11:01:53;18.80;94.30
41668;DHT22;27356;50.920;5.350;2022-09-28T11:04:19;18.60;94.80
41668;DHT22;27356;50.920;5.350;2022-09-28T11:06:46;18.30;94.80
41668;DHT22;27356;50.920;5.350;2022-09-28T11:11:46;18.20;95.50
41668;DHT22;27356;50.920;5.350;2022-09-28T11:16:47;18.10;95.10
41668;DHT22;27356;50.920;5.350;2022-09-28T11:21:44;18.50;95.20
41668;DHT22;27356;50.920;5.350;2022-09-28T11:26:40;18.40;95.30
41668;DHT22;27356;50.920;5.350;2022-09-28T11:29:17;18.50;95.30
41668;DHT22;27356;50.920;5.350;2022-09-28T11:31:43;18.60;94.30
41668;DHT22;27356;50.920;5.350;2022-09-28T11:34:15;18.60;94.00
41668;DHT22;27356;50.920;5.350;2022-09-28T11:36:54;18.40;93.50
41668;DHT22;27356;50.920;5.350;2022-09-28T11:39:31;18.40;93.40
41668;DHT22;27356;50.920;5.350;2022-09-28T11:45:03;18.00;93.80
41668;DHT22;27356;50.920;5.350;2022-09-28T11:50:03;17.90;95.00
41668;DHT22;27356;50.920;5.350;2022-09-28T11:55:23;18.00;93.80
41668;DHT22;27356;50.920;5.350;2022-09-28T11:57:54;17.80;94.90
41668;DHT22;27356;50.920;5.350;2022-09-28T12:00:21;17.60;94.40
41668;DHT22;27356;50.920;5.350;2022-09-28T12:02:53;17.50;94.20
41668;DHT22;27356;50.920;5.350;2022-09-28T12:05:56;17.50;95.30
41668;DHT22;27356;50.920;5.350;2022-09-28T12:08:15;17.50;95.30
41668;DHT22;27356;50.920;5.350;2022-09-28T12:10:50;17.50;95.10
41668;DHT22;27356;50.920;5.350;2022-09-28T12:13:17;17.50;94.60
41668;DHT22;27356;50.920;5.350;2022-09-28T12:18:16;17.80;94.60
41668;DHT22;27356;50.920;5.350;2022-09-28T12:20:45;17.90;95.20
41668;DHT22;27356;50.920;5.350;2022-09-28T12:23:19;17.80;95.60
41668;DHT22;27356;50.920;5.350;2022-09-28T12:25:50;18.00;95.00
41668;DHT22;27356;50.920;5.350;2022-09-28T12:28:29;18.30;94.50
41668;DHT22;27356;50.920;5.350;2022-09-28T12:30:58;18.60;94.30
41668;DHT22;27356;50.920;5.350;2022-09-28T12:33:24;18.70;93.70
41668;DHT22;27356;50.920;5.350;2022-09-28T12:36:05;18.80;93.40
41668;DHT22;27356;50.920;5.350;2022-09-28T12:44:23;19.00;91.90
41668;DHT22;27356;50.920;5.350;2022-09-28T12:49:59;18.70;92.60
41668;DHT22;27356;50.920;5.350;2022-09-28T12:57:36;17.90;93.80
41668;DHT22;27356;50.920;5.350;2022-09-28T13:10:09;16.60;94.90
41668;DHT22;27356;50.920;5.350;2022-09-28T13:12:51;16.50;95.40
41668;DHT22;27356;50.920;5.350;2022-09-28T13:22:58;16.80;96.20
41668;DHT22;27356;50.920;5.350;2022-09-28T13:25:27;16.90;96.70
41668;DHT22;27356;50.920;5.350;2022-09-28T13:28:03;16.90;96.90
41668;DHT22;27356;50.920;5.350;2022-09-28T13:30:29;17.10;96.60
41668;DHT22;27356;50.920;5.350;2022-09-28T13:32:57;17.20;96.00
41668;DHT22;27356;50.920;5.350;2022-09-28T13:35:23;17.30;95.40
41668;DHT22;27356;50.920;5.350;2022-09-28T13:43:24;17.70;95.30
41668;DHT22;27356;50.920;5.350;2022-09-28T13:45:52;17.70;95.80
41668;DHT22;27356;50.920;5.350;2022-09-28T13:48:19;17.80;95.70
41668;DHT22;27356;50.920;5.350;2022-09-28T13:58:46;18.30;95.00
41668;DHT22;27356;50.920;5.350;2022-09-28T14:06:30;18.30;95.00
41668;DHT22;27356;50.920;5.350;2022-09-28T14:09:06;18.20;94.90
41668;DHT22;27356;50.920;5.350;2022-09-28T14:16:39;16.80;95.80
41668;DHT22;27356;50.920;5.350;2022-09-28T14:29:25;15.30;99.90
41668;DHT22;27356;50.920;5.350;2022-09-28T14:32:38;15.00;99.90
41668;DHT22;27356;50.920;5.350;2022-09-28T14:34:42;14.70;99.90
41668;DHT22;27356;50.920;5.350;2022-09-28T14:37:26;14.50;99.90
41668;DHT22;27356;50.920;5.350;2022-09-28T14:43:21;14.30;99.90
41668;DHT22;27356;50.920;5.350;2022-09-28T14:45:49;14.20;99.90
41668;DHT22;27356;50.920;5.350;2022-09-28T14:48:17;14.00;99.90
41668;DHT22;27356;50.920;5.350;2022-09-28T14:50:43;14.00;99.90
41668;DHT22;27356;50.920;5.350;2022-09-28T14:53:12;14.10;99.90
41668;DHT22;27356;50.920;5.350;2022-09-28T14:55:41;14.10;99.90
41668;DHT22;27356;50.920;5.350;2022-09-28T14:58:11;14.20;99.90
41668;DHT22;27356;50.920;5.350;2022-09-28T15:00:40;14.20;99.90
41668;DHT22;27356;50.920;5.350;2022-09-28T15:03:08;14.20;99.90
41668;DHT22;27356;50.920;5.350;2022-09-28T15:05:41;14.40;99.90
41668;DHT22;27356;50.920;5.350;2022-09-28T15:08:08;14.40;99.90
41668;DHT22;27356;50.920;5.350;2022-09-28T15:10:35;14.50;99.90
41668;DHT22;27356;50.920;5.350;2022-09-28T15:13:16;14.40;99.90
41668;DHT22;27356;50.920;5.350;2022-09-28T15:15:49;14.60;99.90
41668;DHT22;27356;50.920;5.350;2022-09-28T15:18:39;14.60;99.90
41668;DHT22;27356;50.920;5.350;2022-09-28T15:21:06;14.60;99.90
41668;DHT22;27356;50.920;5.350;2022-09-28T15:23:33;14.80;99.90
41668;DHT22;27356;50.920;5.350;2022-09-28T15:25:59;14.80;99.90
41668;DHT22;27356;50.920;5.350;2022-09-28T15:28:25;14.60;99.90
41668;DHT22;27356;50.920;5.350;2022-09-28T15:30:57;14.80;99.90
41668;DHT22;27356;50.920;5.350;2022-09-28T15:33:26;14.80;99.90
41668;DHT22;27356;50.920;5.350;2022-09-28T15:36:21;15.00;99.90
41668;DHT22;27356;50.920;5.350;2022-09-28T15:38:52;15.10;99.90
41668;DHT22;27356;50.920;5.350;2022-09-28T15:41:19;15.20;99.90
41668;DHT22;27356;50.920;5.350;2022-09-28T15:44:02;15.30;99.90
41668;DHT22;27356;50.920;5.350;2022-09-28T15:46:31;15.40;99.90
41668;DHT22;27356;50.920;5.350;2022-09-28T15:48:59;15.20;99.90
41668;DHT22;27356;50.920;5.350;2022-09-28T15:51:26;15.30;99.90
41668;DHT22;27356;50.920;5.350;2022-09-28T15:56:24;15.20;99.90
41668;DHT22;27356;50.920;5.350;2022-09-28T16:01:38;15.20;99.90
41668;DHT22;27356;50.920;5.350;2022-09-28T16:09:29;15.30;99.90
41668;DHT22;27356;50.920;5.350;2022-09-28T16:11:55;15.30;99.90
41668;DHT22;27356;50.920;5.350;2022-09-28T16:14:21;15.40;99.90
41668;DHT22;27356;50.920;5.350;2022-09-28T16:16:49;15.30;99.90
41668;DHT22;27356;50.920;5.350;2022-09-28T16:19:27;15.30;99.90
41668;DHT22;27356;50.920;5.350;2022-09-28T16:22:00;15.30;99.90
41668;DHT22;27356;50.920;5.350;2022-09-28T16:24:27;15.30;99.90
41668;DHT22;27356;50.920;5.350;2022-09-28T16:26:55;15.30;99.90
41668;DHT22;27356;50.920;5.350;2022-09-28T16:31:51;15.30;99.90
41668;DHT22;27356;50.920;5.350;2022-09-28T16:34:24;15.10;99.90
41668;DHT22;27356;50.920;5.350;2022-09-28T16:36:49;15.10;99.90
41668;DHT22;27356;50.920;5.350;2022-09-28T16:39:16;15.00;99.90
41668;DHT22;27356;50.920;5.350;2022-09-28T16:41:43;15.00;99.90
41668;DHT22;27356;50.920;5.350;2022-09-28T16:44:18;14.80;99.90
41668;DHT22;27356;50.920;5.350;2022-09-28T16:46:45;14.80;99.90
41668;DHT22;27356;50.920;5.350;2022-09-28T16:49:11;14.70;99.90
41668;DHT22;27356;50.920;5.350;2022-09-28T16:51:40;14.70;99.90
41668;DHT22;27356;50.920;5.350;2022-09-28T16:54:14;14.50;99.90
41668;DHT22;27356;50.920;5.350;2022-09-28T16:56:58;14.20;99.90
41668;DHT22;27356;50.920;5.350;2022-09-28T16:59:24;14.10;99.90
41668;DHT22;27356;50.920;5.350;2022-09-28T17:01:49;14.10;99.90
41668;DHT22;27356;50.920;5.350;2022-09-28T17:04:17;14.10;99.90
41668;DHT22;27356;50.920;5.350;2022-09-28T17:06:48;14.00;99.90
41668;DHT22;27356;50.920;5.350;2022-09-28T17:09:13;13.90;99.90
41668;DHT22;27356;50.920;5.350;2022-09-28T17:11:39;13.90;99.90
41668;DHT22;27356;50.920;5.350;2022-09-28T17:14:04;13.70;99.90
41668;DHT22;27356;50.920;5.350;2022-09-28T17:16:30;13.60;99.90
41668;DHT22;27356;50.920;5.350;2022-09-28T17:18:57;13.50;99.90
41668;DHT22;27356;50.920;5.350;2022-09-28T17:21:23;13.50;99.90
41668;DHT22;27356;50.920;5.350;2022-09-28T17:23:48;13.40;99.90
41668;DHT22;27356;50.920;5.350;2022-09-28T17:26:19;13.50;99.90
41668;DHT22;27356;50.920;5.350;2022-09-28T17:28:46;13.40;99.90
41668;DHT22;27356;50.920;5.350;2022-09-28T17:31:15;13.50;99.90
41668;DHT22;27356;50.920;5.350;2022-09-28T17:33:40;13.50;99.90
41668;DHT22;27356;50.920;5.350;2022-09-28T17:36:08;13.30;99.90
41668;DHT22;27356;50.920;5.350;2022-09-28T17:38:37;13.20;99.90
41668;DHT22;27356;50.920;5.350;2022-09-28T17:41:02;13.10;99.90
41668;DHT22;27356;50.920;5.350;2022-09-28T17:43:30;13.10;99.90
41668;DHT22;27356;50.920;5.350;2022-09-28T17:45:56;13.20;99.90
41668;DHT22;27356;50.920;5.350;2022-09-28T17:48:21;13.20;99.90
41668;DHT22;27356;50.920;5.350;2022-09-28T17:50:48;13.20;99.90
41668;DHT22;27356;50.920;5.350;2022-09-28T17:53:15;13.10;99.90
41668;DHT22;27356;50.920;5.350;2022-09-28T17:55:43;13.00;99.90
41668;DHT22;27356;50.920;5.350;2022-09-28T17:58:19;13.00;99.90
41668;DHT22;27356;50.920;5.350;2022-09-28T18:00:46;12.90;99.90
41668;DHT22;27356;50.920;5.350;2022-09-28T18:03:13;12.80;99.90
41668;DHT22;27356;50.920;5.350;2022-09-28T18:05:42;12.90;99.90
41668;DHT22;27356;50.920;5.350;2022-09-28T18:08:15;12.70;99.90
41668;DHT22;27356;50.920;5.350;2022-09-28T18:10:41;12.60;99.90
41668;DHT22;27356;50.920;5.350;2022-09-28T18:13:07;12.60;99.90
41668;DHT22;27356;50.920;5.350;2022-09-28T18:15:32;12.50;99.90
41668;DHT22;27356;50.920;5.350;2022-09-28T18:17:58;12.40;99.90
41668;DHT22;27356;50.920;5.350;2022-09-28T18:20:24;12.40;99.90
41668;DHT22;27356;50.920;5.350;2022-09-28T18:22:50;12.30;99.90
41668;DHT22;27356;50.920;5.350;2022-09-28T18:25:15;12.30;99.90
41668;DHT22;27356;50.920;5.350;2022-09-28T18:27:41;12.20;99.90
41668;DHT22;27356;50.920;5.350;2022-09-28T18:30:07;12.10;99.90
41668;DHT22;27356;50.920;5.350;2022-09-28T18:32:33;12.00;99.90
41668;DHT22;27356;50.920;5.350;2022-09-28T18:35:02;12.00;99.90
41668;DHT22;27356;50.920;5.350;2022-09-28T18:37:27;12.00;99.90
41668;DHT22;27356;50.920;5.350;2022-09-28T18:39:53;12.00;99.90
41668;DHT22;27356;50.920;5.350;2022-09-28T18:42:18;11.90;99.90
41668;DHT22;27356;50.920;5.350;2022-09-28T18:44:44;12.00;99.90